createdAt,value
2023-02-12T00:01:58.262Z,7.50
2023-02-12T00:05:01.177Z,7.40
2023-02-12T00:08:04.165Z,7.40
2023-02-12T00:11:12.088Z,7.40
2023-02-12T00:14:14.963Z,7.40
2023-02-12T00:17:19.265Z,7.50
2023-02-12T00:20:22.453Z,7.50
2023-02-12T00:23:25.369Z,7.50
2023-02-12T00:26:28.298Z,7.40
2023-02-12T00:29:31.209Z,7.50
2023-02-12T00:32:37.291Z,7.50
2023-02-12T00:35:40.317Z,7.50
2023-02-12T00:38:43.616Z,7.50
2023-02-12T00:41:46.653Z,7.50
2023-02-12T00:44:49.627Z,7.50
2023-02-12T00:47:53.938Z,7.50
2023-02-12T00:50:57.510Z,7.50
2023-02-12T00:54:00.402Z,7.50
2023-02-12T00:57:03.289Z,7.40
2023-02-12T01:00:07.321Z,7.40
2023-02-12T01:03:11.960Z,7.40
2023-02-12T01:06:14.953Z,7.40
2023-02-12T01:09:18.731Z,7.40
2023-02-12T01:12:21.646Z,7.40
2023-02-12T01:15:25.400Z,7.40
2023-02-12T01:18:29.689Z,7.50
2023-02-12T01:21:35.293Z,7.40
2023-02-12T01:24:38.184Z,7.40
2023-02-12T01:27:41.658Z,7.50
2023-02-12T01:30:44.667Z,7.40
2023-02-12T01:33:50.732Z,7.40
2023-02-12T01:36:53.653Z,7.30
2023-02-12T01:39:57.302Z,7.30
2023-02-12T01:43:02.903Z,7.40
2023-02-12T01:46:07.138Z,7.40
2023-02-12T01:49:16.041Z,7.40
2023-02-12T01:52:23.835Z,7.40
2023-02-12T01:55:27.786Z,7.40
2023-02-12T01:58:36.976Z,7.40
2023-02-12T02:01:40.408Z,7.40
2023-02-12T02:04:47.994Z,7.30
2023-02-12T02:07:50.948Z,7.30
2023-02-12T02:10:54.093Z,7.40
2023-02-12T02:14:15.320Z,7.40
2023-02-12T02:17:31.896Z,7.30
2023-02-12T02:21:00.172Z,7.30
2023-02-12T02:24:54.389Z,7.30
2023-02-12T02:28:08.788Z,7.30
2023-02-12T02:31:17.849Z,7.30
2023-02-12T02:34:28.067Z,7.30
2023-02-12T02:37:36.399Z,7.30
2023-02-12T02:40:45.854Z,7.20
2023-02-12T02:43:51.021Z,7.20
2023-02-12T02:46:57.762Z,7.20
2023-02-12T02:50:04.964Z,7.20
2023-02-12T02:53:11.442Z,7.30
2023-02-12T02:56:18.674Z,7.30
2023-02-12T02:59:25.419Z,7.20
2023-02-12T03:02:34.040Z,7.30
2023-02-12T03:05:41.051Z,7.20
2023-02-12T03:08:51.584Z,7.30
2023-02-12T03:11:58.102Z,7.30
2023-02-12T03:15:09.051Z,7.30
2023-02-12T03:18:20.833Z,7.30
2023-02-12T03:21:31.579Z,7.30
2023-02-12T03:24:39.990Z,7.30
2023-02-12T03:27:46.607Z,7.40
2023-02-12T03:30:55.070Z,7.40
2023-02-12T03:34:10.299Z,7.40
2023-02-12T03:37:19.849Z,7.30
2023-02-12T03:40:29.336Z,7.30
2023-02-12T03:43:39.612Z,7.30
2023-02-12T03:46:48.144Z,7.30
2023-02-12T03:50:00.355Z,7.30
2023-02-12T03:53:03.487Z,7.30
2023-02-12T03:56:10.943Z,7.30
2023-02-12T03:59:13.863Z,7.30
2023-02-12T04:02:17.906Z,7.30
2023-02-12T04:05:23.839Z,7.30
2023-02-12T04:08:28.143Z,7.20
2023-02-12T04:11:41.481Z,7.30
2023-02-12T04:14:50.858Z,7.30
2023-02-12T04:18:02.371Z,7.30
2023-02-12T04:21:13.701Z,7.30
2023-02-12T04:24:20.525Z,7.30
2023-02-12T04:27:30.644Z,7.30
2023-02-12T04:30:38.531Z,7.30
2023-02-12T04:33:47.666Z,7.20
2023-02-12T04:36:58.081Z,7.30
2023-02-12T04:40:03.767Z,7.30
2023-02-12T04:43:06.664Z,7.30
2023-02-12T04:46:10.446Z,7.40
2023-02-12T04:49:17.069Z,7.30
2023-02-12T04:52:21.363Z,7.40
2023-02-12T04:55:24.299Z,7.30
2023-02-12T04:58:27.169Z,7.20
2023-02-12T05:01:31.445Z,7.30
2023-02-12T05:04:34.484Z,7.30
2023-02-12T05:07:38.854Z,7.30
2023-02-12T05:10:41.873Z,7.20
2023-02-12T05:13:44.761Z,7.30
2023-02-12T05:16:47.680Z,7.10
2023-02-12T05:19:50.599Z,7.20
2023-02-12T05:22:55.492Z,7.20
2023-02-12T05:26:00.117Z,7.30
2023-02-12T05:29:03.492Z,7.30
2023-02-12T05:32:07.798Z,7.30
2023-02-12T05:35:10.804Z,7.30
2023-02-12T05:38:15.262Z,7.30
2023-02-12T05:41:20.377Z,7.30
2023-02-12T05:44:23.426Z,7.30
2023-02-12T05:47:26.829Z,7.20
2023-02-12T05:50:30.330Z,7.20
2023-02-12T05:53:34.832Z,7.20
2023-02-12T05:56:42.906Z,7.20
2023-02-12T05:59:45.852Z,7.20
2023-02-12T06:02:49.042Z,7.20
2023-02-12T06:05:52.161Z,7.20
2023-02-12T06:08:56.613Z,7.20
2023-02-12T06:11:59.558Z,7.20
2023-02-12T06:15:02.445Z,7.30
2023-02-12T06:18:05.505Z,7.30
2023-02-12T06:21:08.384Z,7.30
2023-02-12T06:24:13.683Z,7.20
2023-02-12T06:27:16.682Z,7.20
2023-02-12T06:30:19.688Z,7.20
2023-02-12T06:33:22.767Z,7.10
2023-02-12T06:36:26.076Z,7.00
2023-02-12T06:39:30.318Z,7.10
2023-02-12T06:42:33.274Z,7.10
2023-02-12T06:45:36.740Z,7.10
2023-02-12T06:48:39.638Z,7.10
2023-02-12T06:51:42.842Z,7.10
2023-02-12T06:54:47.139Z,7.10
2023-02-12T06:57:50.035Z,7.20
2023-02-12T07:00:52.940Z,7.20
2023-02-12T07:03:57.351Z,7.20
2023-02-12T07:07:00.244Z,7.20
2023-02-12T07:10:04.594Z,7.20
2023-02-12T07:13:07.546Z,7.20
2023-02-12T07:16:12.725Z,7.30
2023-02-12T07:19:16.444Z,7.30
2023-02-12T07:22:19.309Z,7.20
2023-02-12T07:25:23.538Z,7.20
2023-02-12T07:28:27.568Z,7.20
2023-02-12T07:31:30.595Z,7.10
2023-02-12T07:34:33.836Z,7.00
2023-02-12T07:37:36.733Z,7.00
2023-02-12T07:40:40.975Z,7.10
2023-02-12T07:43:45.454Z,7.10
2023-02-12T07:46:50.107Z,7.20
2023-02-12T07:49:53.035Z,7.20
2023-02-12T07:52:55.935Z,7.20
2023-02-12T07:56:07.801Z,7.20
2023-02-12T07:59:13.639Z,7.10
2023-02-12T08:02:16.533Z,7.20
2023-02-12T08:05:19.554Z,7.30
2023-02-12T08:08:22.477Z,7.30
2023-02-12T08:11:27.790Z,7.30
2023-02-12T08:14:30.994Z,7.40
2023-02-12T08:17:33.961Z,7.40
2023-02-12T08:20:36.827Z,7.50
2023-02-12T08:23:40.624Z,7.50
2023-02-12T08:26:45.176Z,7.50
2023-02-12T08:29:48.294Z,7.60
2023-02-12T08:32:51.859Z,7.60
2023-02-12T08:36:03.019Z,7.70
2023-02-12T08:39:06.819Z,7.70
2023-02-12T08:42:11.161Z,7.70
2023-02-12T08:45:14.045Z,7.70
2023-02-12T08:48:16.912Z,7.80
2023-02-12T08:51:22.842Z,7.80
2023-02-12T08:54:28.028Z,7.80
2023-02-12T08:57:34.378Z,7.90
2023-02-12T09:00:40.175Z,7.90
2023-02-12T09:03:44.250Z,7.90
2023-02-12T09:06:47.660Z,8.00
2023-02-12T09:09:50.547Z,8.00
2023-02-12T09:12:54.756Z,8.00
2023-02-12T09:15:58.026Z,8.00
2023-02-12T09:19:01.296Z,8.00
2023-02-12T09:22:04.200Z,8.10
2023-02-12T09:25:07.883Z,8.10
2023-02-12T09:28:14.732Z,8.00
2023-02-12T09:31:20.830Z,8.00
2023-02-12T09:34:23.844Z,8.00
2023-02-12T09:37:26.744Z,8.10
2023-02-12T09:40:37.287Z,8.20
2023-02-12T09:43:48.214Z,8.20
2023-02-12T09:46:56.421Z,8.30
2023-02-12T09:50:14.078Z,8.30
2023-02-12T09:53:19.933Z,8.40
2023-02-12T09:56:25.106Z,8.40
2023-02-12T09:59:34.646Z,8.50
2023-02-12T10:02:39.063Z,8.50
2023-02-12T10:05:45.892Z,8.50
2023-02-12T10:09:13.600Z,8.60
2023-02-12T10:12:27.796Z,8.60
2023-02-12T10:15:39.038Z,8.60
2023-02-12T10:18:53.863Z,8.60
2023-02-12T10:22:06.949Z,8.50
2023-02-12T10:25:21.737Z,8.50
2023-02-12T10:28:28.197Z,8.50
2023-02-12T10:31:37.260Z,8.60
2023-02-12T10:34:42.574Z,8.70
2023-02-12T10:37:50.195Z,8.80
2023-02-12T10:40:55.186Z,8.90
2023-02-12T10:43:58.753Z,8.90
2023-02-12T10:47:03.249Z,8.90
2023-02-12T10:50:20.712Z,9.00
2023-02-12T10:53:25.299Z,9.10
2023-02-12T10:56:29.420Z,9.10
2023-02-12T10:59:34.886Z,9.20
2023-02-12T11:02:39.279Z,9.00
2023-02-12T11:05:44.375Z,8.90
2023-02-12T11:08:48.190Z,9.00
2023-02-12T11:11:51.418Z,9.20
2023-02-12T11:14:57.584Z,9.20
2023-02-12T11:18:05.535Z,9.30
2023-02-12T11:21:11.037Z,9.40
2023-02-12T11:24:31.017Z,9.30
2023-02-12T11:27:33.954Z,9.40
2023-02-12T11:30:36.892Z,9.50
2023-02-12T11:33:41.228Z,9.60
2023-02-12T11:36:46.698Z,9.60
2023-02-12T11:39:51.383Z,9.70
2023-02-12T11:42:56.797Z,9.80
2023-02-12T11:46:01.705Z,9.90
2023-02-12T11:49:09.304Z,10.00
2023-02-12T11:52:21.555Z,10.20
2023-02-12T11:55:27.510Z,10.30
2023-02-12T11:58:31.790Z,10.50
2023-02-12T12:01:38.683Z,10.90
2023-02-12T12:04:45.009Z,11.00
2023-02-12T12:07:51.199Z,11.10
2023-02-12T12:11:00.855Z,11.30
2023-02-12T12:14:09.114Z,11.70
2023-02-12T12:17:33.078Z,12.10
2023-02-12T12:20:42.544Z,12.30
2023-02-12T12:23:52.012Z,12.30
2023-02-12T12:27:00.884Z,12.50
2023-02-12T12:30:11.210Z,12.70
2023-02-12T12:33:20.292Z,12.90
2023-02-12T12:36:58.319Z,13.10
2023-02-12T12:40:18.949Z,13.30
2023-02-12T12:43:33.521Z,13.50
2023-02-12T12:46:47.870Z,13.50
2023-02-12T12:50:04.437Z,13.60
2023-02-12T12:53:21.497Z,13.90
2023-02-12T12:56:39.696Z,14.30
2023-02-12T13:00:03.642Z,14.60
2023-02-12T13:03:22.464Z,14.60
2023-02-12T13:06:35.673Z,14.50
2023-02-12T13:09:55.427Z,14.30
2023-02-12T13:13:26.342Z,14.10
2023-02-12T13:16:34.785Z,14.10
2023-02-12T13:19:54.245Z,14.00
2023-02-12T13:23:02.078Z,13.90
2023-02-12T13:26:12.711Z,13.90
2023-02-12T13:29:21.367Z,13.80
2023-02-12T13:32:27.981Z,13.70
2023-02-12T13:35:32.720Z,14.00
2023-02-12T13:38:38.526Z,14.40
2023-02-12T13:41:49.887Z,14.70
2023-02-12T13:45:00.468Z,15.10
2023-02-12T13:48:26.010Z,15.40
2023-02-12T13:51:39.071Z,15.50
2023-02-12T13:54:50.799Z,15.70
2023-02-12T13:58:37.719Z,15.90
2023-02-12T14:01:47.652Z,15.80
2023-02-12T14:04:59.761Z,15.90
2023-02-12T14:08:05.633Z,16.10
2023-02-12T14:11:10.992Z,16.20
2023-02-12T14:14:14.404Z,16.40
2023-02-12T14:17:53.903Z,16.50
2023-02-12T14:21:32.342Z,16.70
2023-02-12T14:24:51.439Z,16.80
2023-02-12T14:27:56.578Z,16.80
2023-02-12T14:31:39.330Z,16.70
2023-02-12T14:34:43.688Z,16.20
2023-02-12T14:37:46.563Z,16.00
2023-02-12T14:40:49.975Z,15.70
2023-02-12T14:44:04.782Z,15.50
2023-02-12T14:47:17.261Z,15.40
2023-02-12T14:50:31.926Z,15.30
2023-02-12T14:53:37.153Z,15.20
2023-02-12T14:56:47.639Z,15.10
2023-02-12T14:59:53.908Z,15.00
2023-02-12T15:03:02.582Z,15.00
2023-02-12T15:06:11.255Z,15.00
2023-02-12T15:09:22.065Z,15.20
2023-02-12T15:12:32.612Z,15.30
2023-02-12T15:15:40.415Z,15.40
2023-02-12T15:18:49.161Z,15.40
2023-02-12T15:21:55.368Z,15.50
2023-02-12T15:25:16.582Z,15.70
2023-02-12T15:28:23.984Z,15.90
2023-02-12T15:31:30.028Z,16.10
2023-02-12T15:34:36.119Z,16.20
2023-02-12T15:37:41.873Z,16.30
2023-02-12T15:40:55.217Z,16.40
2023-02-12T15:43:58.373Z,16.40
2023-02-12T15:47:05.029Z,16.30
2023-02-12T15:50:08.846Z,16.00
2023-02-12T15:53:14.263Z,15.70
2023-02-12T15:56:20.659Z,15.50
2023-02-12T15:59:28.882Z,15.40
2023-02-12T16:02:34.390Z,15.10
2023-02-12T16:05:37.354Z,14.50
2023-02-12T16:08:43.599Z,14.10
2023-02-12T16:11:48.970Z,13.90
2023-02-12T16:14:54.313Z,13.80
2023-02-12T16:17:59.587Z,13.70
2023-02-12T16:21:14.603Z,13.60
2023-02-12T16:24:28.803Z,13.40
2023-02-12T16:27:34.194Z,13.20
2023-02-12T16:30:42.243Z,13.00
2023-02-12T16:33:48.633Z,12.90
2023-02-12T16:36:53.531Z,12.80
2023-02-12T16:40:30.097Z,12.60
2023-02-12T16:43:33.022Z,12.40
2023-02-12T16:46:46.201Z,12.30
2023-02-12T16:49:56.778Z,12.20
2023-02-12T16:53:02.138Z,12.00
2023-02-12T16:56:07.202Z,11.90
2023-02-12T16:59:11.266Z,11.80
2023-02-12T17:02:15.738Z,11.70
2023-02-12T17:05:20.982Z,11.50
2023-02-12T17:08:24.965Z,11.40
2023-02-12T17:11:29.930Z,11.30
2023-02-12T17:14:32.868Z,11.20
2023-02-12T17:17:35.805Z,11.10
2023-02-12T17:20:39.202Z,11.00
2023-02-12T17:23:43.088Z,10.90
2023-02-12T17:26:50.347Z,10.80
2023-02-12T17:29:53.513Z,10.80
2023-02-12T17:32:56.484Z,10.70
2023-02-12T17:35:59.722Z,10.70
2023-02-12T17:39:04.864Z,10.60
2023-02-12T17:42:09.169Z,10.40
2023-02-12T17:45:12.082Z,10.40
2023-02-12T17:48:17.587Z,10.40
2023-02-12T17:51:20.900Z,10.30
2023-02-12T17:54:23.771Z,10.30
2023-02-12T17:57:28.027Z,10.20
2023-02-12T18:00:31.186Z,10.10
2023-02-12T18:03:34.161Z,9.90
2023-02-12T18:06:37.054Z,9.90
2023-02-12T18:09:40.105Z,9.80
2023-02-12T18:12:44.382Z,9.80
2023-02-12T18:15:47.413Z,9.80
2023-02-12T18:18:50.715Z,9.70
2023-02-12T18:21:53.647Z,9.60
2023-02-12T18:24:57.618Z,9.50
2023-02-12T18:28:02.445Z,9.40
2023-02-12T18:31:06.713Z,9.30
2023-02-12T18:34:09.756Z,9.30
2023-02-12T18:37:14.217Z,9.30
2023-02-12T18:40:17.580Z,9.20
2023-02-12T18:43:23.294Z,9.20
2023-02-12T18:46:30.013Z,9.20
2023-02-12T18:49:32.955Z,9.10
2023-02-12T18:52:37.178Z,9.20
2023-02-12T18:55:40.465Z,9.10
2023-02-12T18:58:45.230Z,9.10
2023-02-12T19:01:50.487Z,9.00
2023-02-12T19:04:53.602Z,9.00
2023-02-12T19:07:57.122Z,8.90
2023-02-12T19:11:00.032Z,8.80
2023-02-12T19:14:04.578Z,8.80
2023-02-12T19:17:07.775Z,8.70
2023-02-12T19:20:11.802Z,8.70
2023-02-12T19:23:14.770Z,8.60
2023-02-12T19:26:17.920Z,8.60
2023-02-12T19:29:22.334Z,8.50
2023-02-12T19:32:25.252Z,8.50
2023-02-12T19:35:28.145Z,8.50
2023-02-12T19:38:31.104Z,8.40
2023-02-12T19:41:40.611Z,8.30
2023-02-12T19:44:46.730Z,8.30
2023-02-12T19:47:50.728Z,8.30
2023-02-12T19:50:53.786Z,8.20
2023-02-12T19:54:00.144Z,8.20
2023-02-12T19:57:03.822Z,8.20
2023-02-12T20:00:09.558Z,8.10
2023-02-12T20:03:13.513Z,8.10
2023-02-12T20:06:19.351Z,8.10
2023-02-12T20:09:23.206Z,8.10
2023-02-12T20:12:26.250Z,8.00
2023-02-12T20:15:30.616Z,7.90
2023-02-12T20:18:34.204Z,8.00
2023-02-12T20:21:37.683Z,8.00
2023-02-12T20:24:40.911Z,8.00
2023-02-12T20:27:43.824Z,8.00
2023-02-12T20:30:48.676Z,8.00
2023-02-12T20:33:55.424Z,7.90
2023-02-12T20:36:58.375Z,7.70
2023-02-12T20:40:01.301Z,7.70
2023-02-12T20:43:04.256Z,7.70
2023-02-12T20:46:10.345Z,7.80
2023-02-12T20:49:14.885Z,7.80
2023-02-12T20:52:17.755Z,7.70
2023-02-12T20:55:20.953Z,7.70
2023-02-12T20:58:23.865Z,7.70
2023-02-12T21:01:31.567Z,7.80
2023-02-12T21:04:34.599Z,7.80
2023-02-12T21:07:37.457Z,7.80
2023-02-12T21:10:40.427Z,7.80
2023-02-12T21:13:53.711Z,7.90
2023-02-12T21:17:06.684Z,7.90
2023-02-12T21:20:10.157Z,7.90
2023-02-12T21:23:13.093Z,7.90
2023-02-12T21:26:17.732Z,7.80
2023-02-12T21:29:21.071Z,7.80
2023-02-12T21:32:25.505Z,7.80
2023-02-12T21:35:29.156Z,7.80
2023-02-12T21:38:34.610Z,7.80
2023-02-12T21:41:40.244Z,7.80
2023-02-12T21:44:43.222Z,7.80
2023-02-12T21:47:47.677Z,7.80
2023-02-12T21:50:50.910Z,7.80
2023-02-12T21:53:55.923Z,7.80
2023-02-12T21:56:59.312Z,7.80
2023-02-12T22:00:02.218Z,7.70
2023-02-12T22:03:06.669Z,7.60
2023-02-12T22:06:10.108Z,7.60
2023-02-12T22:09:15.409Z,7.60
2023-02-12T22:12:19.399Z,7.60
2023-02-12T22:15:22.602Z,7.60
2023-02-12T22:18:26.845Z,7.60
2023-02-12T22:21:32.932Z,7.50
2023-02-12T22:24:37.144Z,7.50
2023-02-12T22:27:40.080Z,7.50
2023-02-12T22:30:45.345Z,7.50
2023-02-12T22:33:50.739Z,7.50
2023-02-12T22:36:53.620Z,7.50
2023-02-12T22:39:56.694Z,7.40
2023-02-12T22:42:59.796Z,7.50
2023-02-12T22:46:03.232Z,7.40
2023-02-12T22:49:07.745Z,7.40
2023-02-12T22:52:10.921Z,7.40
2023-02-12T22:55:14.123Z,7.40
2023-02-12T22:58:17.447Z,7.40
2023-02-12T23:01:21.146Z,7.40
2023-02-12T23:04:25.699Z,7.40
2023-02-12T23:07:28.777Z,7.40
2023-02-12T23:10:32.252Z,7.40
2023-02-12T23:13:35.435Z,7.30
2023-02-12T23:16:38.775Z,7.30
2023-02-12T23:19:43.077Z,7.30
2023-02-12T23:22:46.003Z,7.30
2023-02-12T23:25:49.583Z,7.30
2023-02-12T23:28:52.691Z,7.20
2023-02-12T23:31:55.635Z,7.20
2023-02-12T23:34:59.870Z,7.20
2023-02-12T23:38:04.328Z,7.20
2023-02-12T23:41:07.464Z,7.20
2023-02-12T23:44:11.270Z,7.20
2023-02-12T23:47:14.523Z,7.20
2023-02-12T23:50:19.307Z,7.10
2023-02-12T23:53:22.423Z,7.20
2023-02-12T23:56:25.377Z,7.10
2023-02-12T23:59:28.331Z,7.10
